sensor_id;sensor_type;location;lat;lon;timestamp;P1;P2;P0
62236;PMS5003;69163;48.778;2.308;2023-08-20T00:00:25;8;5;
62236;PMS5003;69163;48.778;2.308;2023-08-20T00:02:51;5;5;
62236;PMS5003;69163;48.778;2.308;2023-08-20T00:05:16;7;5;
62236;PMS5003;69163;48.778;2.308;2023-08-20T00:07:41;5;5;
62236;PMS5003;69163;48.778;2.308;2023-08-20T00:10:06;4;4;
62236;PMS5003;69163;48.778;2.308;2023-08-20T00:12:31;6;6;
62236;PMS5003;69163;48.778;2.308;2023-08-20T00:14:57;9;7;
62236;PMS5003;69163;48.778;2.308;2023-08-20T00:17:22;7;6;
62236;PMS5003;69163;48.778;2.308;2023-08-20T00:19:48;5;5;
62236;PMS5003;69163;48.778;2.308;2023-08-20T00:22:12;7;7;
62236;PMS5003;69163;48.778;2.308;2023-08-20T00:24:38;5;5;
62236;PMS5003;69163;48.778;2.308;2023-08-20T00:27:03;9;6;
62236;PMS5003;69163;48.778;2.308;2023-08-20T00:29:27;5;5;
62236;PMS5003;69163;48.778;2.308;2023-08-20T00:31:53;9;7;
62236;PMS5003;69163;48.778;2.308;2023-08-20T00:34:18;6;4;
62236;PMS5003;69163;48.778;2.308;2023-08-20T00:36:43;10;8;
62236;PMS5003;69163;48.778;2.308;2023-08-20T00:39:09;6;6;
62236;PMS5003;69163;48.778;2.308;2023-08-20T00:41:34;5;5;
62236;PMS5003;69163;48.778;2.308;2023-08-20T00:44:00;10;10;
62236;PMS5003;69163;48.778;2.308;2023-08-20T00:46:25;8;6;
62236;PMS5003;69163;48.778;2.308;2023-08-20T00:48:50;6;6;
62236;PMS5003;69163;48.778;2.308;2023-08-20T00:51:16;6;6;
62236;PMS5003;69163;48.778;2.308;2023-08-20T00:53:41;8;8;
62236;PMS5003;69163;48.778;2.308;2023-08-20T00:56:06;7;6;
62236;PMS5003;69163;48.778;2.308;2023-08-20T00:58:31;7;7;
62236;PMS5003;69163;48.778;2.308;2023-08-20T01:00:57;7;7;
62236;PMS5003;69163;48.778;2.308;2023-08-20T01:03:22;9;7;
62236;PMS5003;69163;48.778;2.308;2023-08-20T01:05:49;7;7;
62236;PMS5003;69163;48.778;2.308;2023-08-20T01:08:16;8;6;
62236;PMS5003;69163;48.778;2.308;2023-08-20T01:10:40;3;3;
62236;PMS5003;69163;48.778;2.308;2023-08-20T01:13:03;6;6;
62236;PMS5003;69163;48.778;2.308;2023-08-20T01:15:28;9;7;
62236;PMS5003;69163;48.778;2.308;2023-08-20T01:17:53;7;5;
62236;PMS5003;69163;48.778;2.308;2023-08-20T01:20:19;6;6;
62236;PMS5003;69163;48.778;2.308;2023-08-20T01:25:11;7;7;
62236;PMS5003;69163;48.778;2.308;2023-08-20T01:27:39;10;8;
62236;PMS5003;69163;48.778;2.308;2023-08-20T01:30:00;13;11;
62236;PMS5003;69163;48.778;2.308;2023-08-20T01:32:26;6;6;
62236;PMS5003;69163;48.778;2.308;2023-08-20T01:34:52;6;5;
62236;PMS5003;69163;48.778;2.308;2023-08-20T01:37:16;10;7;
62236;PMS5003;69163;48.778;2.308;2023-08-20T01:39:41;9;6;
62236;PMS5003;69163;48.778;2.308;2023-08-20T01:42:06;7;7;
62236;PMS5003;69163;48.778;2.308;2023-08-20T01:44:31;7;7;
62236;PMS5003;69163;48.778;2.308;2023-08-20T01:46:57;7;6;
62236;PMS5003;69163;48.778;2.308;2023-08-20T01:49:22;7;6;
62236;PMS5003;69163;48.778;2.308;2023-08-20T01:51:47;6;6;
62236;PMS5003;69163;48.778;2.308;2023-08-20T01:54:12;6;6;
62236;PMS5003;69163;48.778;2.308;2023-08-20T01:56:37;6;6;
62236;PMS5003;69163;48.778;2.308;2023-08-20T01:59:03;8;6;
62236;PMS5003;69163;48.778;2.308;2023-08-20T02:01:28;8;6;
62236;PMS5003;69163;48.778;2.308;2023-08-20T02:03:53;8;7;
62236;PMS5003;69163;48.778;2.308;2023-08-20T02:06:18;9;7;
62236;PMS5003;69163;48.778;2.308;2023-08-20T02:08:43;8;8;
62236;PMS5003;69163;48.778;2.308;2023-08-20T02:11:09;7;7;
62236;PMS5003;69163;48.778;2.308;2023-08-20T02:13:34;6;6;
62236;PMS5003;69163;48.778;2.308;2023-08-20T02:15:59;5;5;
62236;PMS5003;69163;48.778;2.308;2023-08-20T02:18:24;7;7;
62236;PMS5003;69163;48.778;2.308;2023-08-20T02:20:50;9;7;
62236;PMS5003;69163;48.778;2.308;2023-08-20T02:23:15;7;7;
62236;PMS5003;69163;48.778;2.308;2023-08-20T02:25:40;7;6;
62236;PMS5003;69163;48.778;2.308;2023-08-20T02:28:05;6;6;
62236;PMS5003;69163;48.778;2.308;2023-08-20T02:30:30;9;6;
62236;PMS5003;69163;48.778;2.308;2023-08-20T02:32:56;6;6;
62236;PMS5003;69163;48.778;2.308;2023-08-20T02:35:21;6;6;
62236;PMS5003;69163;48.778;2.308;2023-08-20T02:37:46;7;7;
62236;PMS5003;69163;48.778;2.308;2023-08-20T02:40:11;7;7;
62236;PMS5003;69163;48.778;2.308;2023-08-20T02:42:36;6;6;
62236;PMS5003;69163;48.778;2.308;2023-08-20T02:45:01;8;7;
62236;PMS5003;69163;48.778;2.308;2023-08-20T02:47:27;8;8;
62236;PMS5003;69163;48.778;2.308;2023-08-20T02:49:52;9;9;
62236;PMS5003;69163;48.778;2.308;2023-08-20T02:52:17;6;6;
62236;PMS5003;69163;48.778;2.308;2023-08-20T02:54:42;9;7;
62236;PMS5003;69163;48.778;2.308;2023-08-20T02:57:08;9;9;
62236;PMS5003;69163;48.778;2.308;2023-08-20T02:59:33;10;7;
62236;PMS5003;69163;48.778;2.308;2023-08-20T03:01:58;11;9;
62236;PMS5003;69163;48.778;2.308;2023-08-20T03:04:23;8;8;
62236;PMS5003;69163;48.778;2.308;2023-08-20T03:06:48;8;7;
62236;PMS5003;69163;48.778;2.308;2023-08-20T03:09:13;8;7;
62236;PMS5003;69163;48.778;2.308;2023-08-20T03:11:38;8;7;
62236;PMS5003;69163;48.778;2.308;2023-08-20T03:14:04;9;8;
62236;PMS5003;69163;48.778;2.308;2023-08-20T03:16:29;10;9;
62236;PMS5003;69163;48.778;2.308;2023-08-20T03:18:54;10;7;
62236;PMS5003;69163;48.778;2.308;2023-08-20T03:21:20;7;6;
62236;PMS5003;69163;48.778;2.308;2023-08-20T03:23:45;8;8;
62236;PMS5003;69163;48.778;2.308;2023-08-20T03:26:10;13;8;
62236;PMS5003;69163;48.778;2.308;2023-08-20T03:28:35;8;7;
62236;PMS5003;69163;48.778;2.308;2023-08-20T03:31:00;9;9;
62236;PMS5003;69163;48.778;2.308;2023-08-20T03:33:26;7;6;
62236;PMS5003;69163;48.778;2.308;2023-08-20T03:35:51;8;8;
62236;PMS5003;69163;48.778;2.308;2023-08-20T03:38:16;9;8;
62236;PMS5003;69163;48.778;2.308;2023-08-20T03:40:41;6;6;
62236;PMS5003;69163;48.778;2.308;2023-08-20T03:43:06;8;6;
62236;PMS5003;69163;48.778;2.308;2023-08-20T03:45:32;6;6;
62236;PMS5003;69163;48.778;2.308;2023-08-20T03:47:57;7;7;
62236;PMS5003;69163;48.778;2.308;2023-08-20T03:50:23;8;6;
62236;PMS5003;69163;48.778;2.308;2023-08-20T03:52:48;7;6;
62236;PMS5003;69163;48.778;2.308;2023-08-20T03:55:13;8;7;
62236;PMS5003;69163;48.778;2.308;2023-08-20T03:57:38;8;8;
62236;PMS5003;69163;48.778;2.308;2023-08-20T04:00:04;9;8;
62236;PMS5003;69163;48.778;2.308;2023-08-20T04:02:28;7;7;
62236;PMS5003;69163;48.778;2.308;2023-08-20T04:04:54;9;7;
62236;PMS5003;69163;48.778;2.308;2023-08-20T04:07:20;8;8;
62236;PMS5003;69163;48.778;2.308;2023-08-20T04:09:45;7;6;
62236;PMS5003;69163;48.778;2.308;2023-08-20T04:12:10;7;7;
62236;PMS5003;69163;48.778;2.308;2023-08-20T04:14:35;7;7;
62236;PMS5003;69163;48.778;2.308;2023-08-20T04:17:00;6;6;
62236;PMS5003;69163;48.778;2.308;2023-08-20T04:19:26;7;7;
62236;PMS5003;69163;48.778;2.308;2023-08-20T04:21:51;5;5;
62236;PMS5003;69163;48.778;2.308;2023-08-20T04:24:16;8;7;
62236;PMS5003;69163;48.778;2.308;2023-08-20T04:26:41;7;7;
62236;PMS5003;69163;48.778;2.308;2023-08-20T04:29:06;8;8;
62236;PMS5003;69163;48.778;2.308;2023-08-20T04:31:31;8;7;
62236;PMS5003;69163;48.778;2.308;2023-08-20T04:33:57;10;7;
62236;PMS5003;69163;48.778;2.308;2023-08-20T04:36:23;6;6;
62236;PMS5003;69163;48.778;2.308;2023-08-20T04:38:48;7;7;
62236;PMS5003;69163;48.778;2.308;2023-08-20T04:41:18;7;7;
62236;PMS5003;69163;48.778;2.308;2023-08-20T04:43:38;6;6;
62236;PMS5003;69163;48.778;2.308;2023-08-20T04:46:04;10;10;
62236;PMS5003;69163;48.778;2.308;2023-08-20T04:48:29;6;6;
62236;PMS5003;69163;48.778;2.308;2023-08-20T04:50:54;8;6;
62236;PMS5003;69163;48.778;2.308;2023-08-20T04:53:19;8;8;
62236;PMS5003;69163;48.778;2.308;2023-08-20T04:55:44;6;5;
62236;PMS5003;69163;48.778;2.308;2023-08-20T04:58:09;9;8;
62236;PMS5003;69163;48.778;2.308;2023-08-20T05:00:35;6;6;
62236;PMS5003;69163;48.778;2.308;2023-08-20T05:03:00;6;5;
62236;PMS5003;69163;48.778;2.308;2023-08-20T05:05:25;6;6;
62236;PMS5003;69163;48.778;2.308;2023-08-20T05:07:50;10;7;
62236;PMS5003;69163;48.778;2.308;2023-08-20T05:10:16;8;6;
62236;PMS5003;69163;48.778;2.308;2023-08-20T05:12:41;5;5;
62236;PMS5003;69163;48.778;2.308;2023-08-20T05:15:07;8;8;
62236;PMS5003;69163;48.778;2.308;2023-08-20T05:17:32;7;7;
62236;PMS5003;69163;48.778;2.308;2023-08-20T05:19:57;10;7;
62236;PMS5003;69163;48.778;2.308;2023-08-20T05:22:23;6;6;
62236;PMS5003;69163;48.778;2.308;2023-08-20T05:24:48;6;5;
62236;PMS5003;69163;48.778;2.308;2023-08-20T05:27:13;8;7;
62236;PMS5003;69163;48.778;2.308;2023-08-20T05:29:38;6;6;
62236;PMS5003;69163;48.778;2.308;2023-08-20T05:32:04;6;6;
62236;PMS5003;69163;48.778;2.308;2023-08-20T05:34:29;5;5;
62236;PMS5003;69163;48.778;2.308;2023-08-20T05:36:54;6;6;
62236;PMS5003;69163;48.778;2.308;2023-08-20T05:39:19;6;6;
62236;PMS5003;69163;48.778;2.308;2023-08-20T05:41:44;8;7;
62236;PMS5003;69163;48.778;2.308;2023-08-20T05:44:09;7;7;
62236;PMS5003;69163;48.778;2.308;2023-08-20T05:46:35;8;7;
62236;PMS5003;69163;48.778;2.308;2023-08-20T05:49:00;7;7;
62236;PMS5003;69163;48.778;2.308;2023-08-20T05:51:25;6;6;
62236;PMS5003;69163;48.778;2.308;2023-08-20T05:53:50;10;8;
62236;PMS5003;69163;48.778;2.308;2023-08-20T05:56:15;6;6;
62236;PMS5003;69163;48.778;2.308;2023-08-20T05:58:41;9;7;
62236;PMS5003;69163;48.778;2.308;2023-08-20T06:01:06;8;8;
62236;PMS5003;69163;48.778;2.308;2023-08-20T06:03:31;9;7;
62236;PMS5003;69163;48.778;2.308;2023-08-20T06:05:57;5;5;
62236;PMS5003;69163;48.778;2.308;2023-08-20T06:08:22;8;7;
62236;PMS5003;69163;48.778;2.308;2023-08-20T06:10:47;6;6;
62236;PMS5003;69163;48.778;2.308;2023-08-20T06:13:12;7;7;
62236;PMS5003;69163;48.778;2.308;2023-08-20T06:15:37;5;5;
62236;PMS5003;69163;48.778;2.308;2023-08-20T06:18:02;7;7;
62236;PMS5003;69163;48.778;2.308;2023-08-20T06:20:27;6;6;
62236;PMS5003;69163;48.778;2.308;2023-08-20T06:22:53;7;7;
62236;PMS5003;69163;48.778;2.308;2023-08-20T06:25:18;5;5;
62236;PMS5003;69163;48.778;2.308;2023-08-20T06:27:43;9;8;
62236;PMS5003;69163;48.778;2.308;2023-08-20T06:30:08;5;5;
62236;PMS5003;69163;48.778;2.308;2023-08-20T06:32:33;6;6;
62236;PMS5003;69163;48.778;2.308;2023-08-20T06:34:59;7;5;
62236;PMS5003;69163;48.778;2.308;2023-08-20T06:37:24;6;6;
62236;PMS5003;69163;48.778;2.308;2023-08-20T06:39:49;7;6;
62236;PMS5003;69163;48.778;2.308;2023-08-20T06:42:14;6;6;
62236;PMS5003;69163;48.778;2.308;2023-08-20T06:44:39;5;5;
62236;PMS5003;69163;48.778;2.308;2023-08-20T06:47:05;5;5;
62236;PMS5003;69163;48.778;2.308;2023-08-20T06:49:30;5;5;
62236;PMS5003;69163;48.778;2.308;2023-08-20T06:51:55;6;6;
62236;PMS5003;69163;48.778;2.308;2023-08-20T06:54:21;7;7;
62236;PMS5003;69163;48.778;2.308;2023-08-20T06:56:45;6;6;
62236;PMS5003;69163;48.778;2.308;2023-08-20T06:59:11;9;9;
62236;PMS5003;69163;48.778;2.308;2023-08-20T07:01:36;7;7;
62236;PMS5003;69163;48.778;2.308;2023-08-20T07:04:01;6;5;
62236;PMS5003;69163;48.778;2.308;2023-08-20T07:06:26;6;6;
62236;PMS5003;69163;48.778;2.308;2023-08-20T07:08:52;7;6;
62236;PMS5003;69163;48.778;2.308;2023-08-20T07:11:17;8;6;
62236;PMS5003;69163;48.778;2.308;2023-08-20T07:13:42;7;6;
62236;PMS5003;69163;48.778;2.308;2023-08-20T07:16:07;7;7;
62236;PMS5003;69163;48.778;2.308;2023-08-20T07:18:32;6;6;
62236;PMS5003;69163;48.778;2.308;2023-08-20T07:20:58;8;7;
62236;PMS5003;69163;48.778;2.308;2023-08-20T07:23:23;10;8;
62236;PMS5003;69163;48.778;2.308;2023-08-20T07:25:48;8;5;
62236;PMS5003;69163;48.778;2.308;2023-08-20T07:28:13;7;7;
62236;PMS5003;69163;48.778;2.308;2023-08-20T07:30:38;8;7;
62236;PMS5003;69163;48.778;2.308;2023-08-20T07:33:04;8;6;
62236;PMS5003;69163;48.778;2.308;2023-08-20T07:35:29;6;5;
62236;PMS5003;69163;48.778;2.308;2023-08-20T07:37:54;6;6;
62236;PMS5003;69163;48.778;2.308;2023-08-20T07:40:19;5;5;
62236;PMS5003;69163;48.778;2.308;2023-08-20T07:42:44;10;9;
62236;PMS5003;69163;48.778;2.308;2023-08-20T07:45:10;8;6;
62236;PMS5003;69163;48.778;2.308;2023-08-20T07:47:35;6;6;
62236;PMS5003;69163;48.778;2.308;2023-08-20T07:50:00;7;7;
62236;PMS5003;69163;48.778;2.308;2023-08-20T07:52:25;7;7;
62236;PMS5003;69163;48.778;2.308;2023-08-20T07:54:50;6;6;
62236;PMS5003;69163;48.778;2.308;2023-08-20T07:57:16;5;5;
62236;PMS5003;69163;48.778;2.308;2023-08-20T07:59:41;6;6;
62236;PMS5003;69163;48.778;2.308;2023-08-20T08:02:06;7;7;
62236;PMS5003;69163;48.778;2.308;2023-08-20T08:04:31;6;6;
62236;PMS5003;69163;48.778;2.308;2023-08-20T08:07:02;7;7;
62236;PMS5003;69163;48.778;2.308;2023-08-20T08:09:25;6;6;
62236;PMS5003;69163;48.778;2.308;2023-08-20T08:11:48;5;5;
62236;PMS5003;69163;48.778;2.308;2023-08-20T08:14:12;6;6;
62236;PMS5003;69163;48.778;2.308;2023-08-20T08:16:37;10;10;
62236;PMS5003;69163;48.778;2.308;2023-08-20T08:19:02;7;7;
62236;PMS5003;69163;48.778;2.308;2023-08-20T08:21:27;6;5;
62236;PMS5003;69163;48.778;2.308;2023-08-20T08:23:53;7;7;
62236;PMS5003;69163;48.778;2.308;2023-08-20T08:26:18;6;6;
62236;PMS5003;69163;48.778;2.308;2023-08-20T08:28:43;6;6;
62236;PMS5003;69163;48.778;2.308;2023-08-20T08:31:08;6;6;
62236;PMS5003;69163;48.778;2.308;2023-08-20T08:33:34;11;9;
62236;PMS5003;69163;48.778;2.308;2023-08-20T08:35:59;6;6;
62236;PMS5003;69163;48.778;2.308;2023-08-20T08:38:24;7;7;
62236;PMS5003;69163;48.778;2.308;2023-08-20T08:40:49;7;7;
62236;PMS5003;69163;48.778;2.308;2023-08-20T08:43:14;7;7;
62236;PMS5003;69163;48.778;2.308;2023-08-20T08:45:39;8;7;
62236;PMS5003;69163;48.778;2.308;2023-08-20T08:48:05;6;6;
62236;PMS5003;69163;48.778;2.308;2023-08-20T08:50:30;7;7;
62236;PMS5003;69163;48.778;2.308;2023-08-20T08:52:55;8;8;
62236;PMS5003;69163;48.778;2.308;2023-08-20T08:55:21;6;6;
62236;PMS5003;69163;48.778;2.308;2023-08-20T08:57:46;8;7;
62236;PMS5003;69163;48.778;2.308;2023-08-20T09:00:12;6;6;
62236;PMS5003;69163;48.778;2.308;2023-08-20T09:02:36;7;7;
62236;PMS5003;69163;48.778;2.308;2023-08-20T09:05:01;6;4;
62236;PMS5003;69163;48.778;2.308;2023-08-20T09:07:26;6;5;
62236;PMS5003;69163;48.778;2.308;2023-08-20T09:09:56;5;5;
62236;PMS5003;69163;48.778;2.308;2023-08-20T09:12:17;8;7;
62236;PMS5003;69163;48.778;2.308;2023-08-20T09:14:44;6;6;
62236;PMS5003;69163;48.778;2.308;2023-08-20T09:17:07;8;8;
62236;PMS5003;69163;48.778;2.308;2023-08-20T09:19:35;8;6;
62236;PMS5003;69163;48.778;2.308;2023-08-20T09:24:26;7;7;
62236;PMS5003;69163;48.778;2.308;2023-08-20T09:26:49;8;8;
62236;PMS5003;69163;48.778;2.308;2023-08-20T09:29:14;6;6;
62236;PMS5003;69163;48.778;2.308;2023-08-20T09:31:39;8;8;
62236;PMS5003;69163;48.778;2.308;2023-08-20T09:34:05;9;8;
62236;PMS5003;69163;48.778;2.308;2023-08-20T09:36:30;9;9;
62236;PMS5003;69163;48.778;2.308;2023-08-20T09:38:55;10;9;
62236;PMS5003;69163;48.778;2.308;2023-08-20T09:41:20;8;8;
62236;PMS5003;69163;48.778;2.308;2023-08-20T09:43:46;9;9;
62236;PMS5003;69163;48.778;2.308;2023-08-20T09:46:11;6;6;
62236;PMS5003;69163;48.778;2.308;2023-08-20T09:48:36;9;9;
62236;PMS5003;69163;48.778;2.308;2023-08-20T09:51:03;8;8;
62236;PMS5003;69163;48.778;2.308;2023-08-20T09:53:27;9;9;
62236;PMS5003;69163;48.778;2.308;2023-08-20T09:55:52;10;9;
62236;PMS5003;69163;48.778;2.308;2023-08-20T09:58:17;9;9;
62236;PMS5003;69163;48.778;2.308;2023-08-20T10:00:42;8;8;
62236;PMS5003;69163;48.778;2.308;2023-08-20T10:03:07;7;7;
62236;PMS5003;69163;48.778;2.308;2023-08-20T10:05:32;7;7;
62236;PMS5003;69163;48.778;2.308;2023-08-20T10:07:58;8;8;
62236;PMS5003;69163;48.778;2.308;2023-08-20T10:10:23;8;8;
62236;PMS5003;69163;48.778;2.308;2023-08-20T10:12:48;9;9;
62236;PMS5003;69163;48.778;2.308;2023-08-20T10:15:13;7;7;
62236;PMS5003;69163;48.778;2.308;2023-08-20T10:17:39;9;9;
62236;PMS5003;69163;48.778;2.308;2023-08-20T10:20:04;10;10;
62236;PMS5003;69163;48.778;2.308;2023-08-20T10:22:32;9;9;
62236;PMS5003;69163;48.778;2.308;2023-08-20T10:24:54;9;9;
62236;PMS5003;69163;48.778;2.308;2023-08-20T10:27:25;10;9;
62236;PMS5003;69163;48.778;2.308;2023-08-20T10:29:45;6;6;
62236;PMS5003;69163;48.778;2.308;2023-08-20T10:32:10;8;8;
62236;PMS5003;69163;48.778;2.308;2023-08-20T10:34:35;7;7;
62236;PMS5003;69163;48.778;2.308;2023-08-20T10:37:01;8;8;
62236;PMS5003;69163;48.778;2.308;2023-08-20T10:39:25;11;10;
62236;PMS5003;69163;48.778;2.308;2023-08-20T10:41:54;10;9;
62236;PMS5003;69163;48.778;2.308;2023-08-20T10:44:16;8;8;
62236;PMS5003;69163;48.778;2.308;2023-08-20T10:49:06;10;8;
62236;PMS5003;69163;48.778;2.308;2023-08-20T10:51:32;10;10;
62236;PMS5003;69163;48.778;2.308;2023-08-20T10:54:03;8;8;
62236;PMS5003;69163;48.778;2.308;2023-08-20T10:56:22;9;9;
62236;PMS5003;69163;48.778;2.308;2023-08-20T10:58:47;10;9;
62236;PMS5003;69163;48.778;2.308;2023-08-20T11:01:15;10;9;
62236;PMS5003;69163;48.778;2.308;2023-08-20T11:03:38;7;6;
62236;PMS5003;69163;48.778;2.308;2023-08-20T11:06:04;7;7;
62236;PMS5003;69163;48.778;2.308;2023-08-20T11:08:29;6;6;
62236;PMS5003;69163;48.778;2.308;2023-08-20T11:10:54;9;9;
62236;PMS5003;69163;48.778;2.308;2023-08-20T11:13:19;10;7;
62236;PMS5003;69163;48.778;2.308;2023-08-20T11:15:45;7;7;
62236;PMS5003;69163;48.778;2.308;2023-08-20T11:18:09;10;9;
62236;PMS5003;69163;48.778;2.308;2023-08-20T11:20:34;6;6;
62236;PMS5003;69163;48.778;2.308;2023-08-20T11:23:00;8;7;
62236;PMS5003;69163;48.778;2.308;2023-08-20T11:25:26;8;6;
62236;PMS5003;69163;48.778;2.308;2023-08-20T11:27:50;6;6;
62236;PMS5003;69163;48.778;2.308;2023-08-20T11:30:16;5;5;
62236;PMS5003;69163;48.778;2.308;2023-08-20T11:32:41;6;6;
62236;PMS5003;69163;48.778;2.308;2023-08-20T11:35:07;8;8;
62236;PMS5003;69163;48.778;2.308;2023-08-20T11:37:32;5;5;
62236;PMS5003;69163;48.778;2.308;2023-08-20T11:39:57;9;9;
62236;PMS5003;69163;48.778;2.308;2023-08-20T11:42:22;6;6;
62236;PMS5003;69163;48.778;2.308;2023-08-20T11:44:47;8;8;
62236;PMS5003;69163;48.778;2.308;2023-08-20T11:47:14;9;8;
62236;PMS5003;69163;48.778;2.308;2023-08-20T11:49:38;6;6;
62236;PMS5003;69163;48.778;2.308;2023-08-20T11:52:03;5;5;
62236;PMS5003;69163;48.778;2.308;2023-08-20T11:54:28;7;7;
62236;PMS5003;69163;48.778;2.308;2023-08-20T11:57:01;8;7;
62236;PMS5003;69163;48.778;2.308;2023-08-20T11:59:19;7;7;
62236;PMS5003;69163;48.778;2.308;2023-08-20T12:01:49;6;6;
62236;PMS5003;69163;48.778;2.308;2023-08-20T12:04:09;6;6;
62236;PMS5003;69163;48.778;2.308;2023-08-20T12:06:34;6;6;
62236;PMS5003;69163;48.778;2.308;2023-08-20T12:09:00;6;6;
62236;PMS5003;69163;48.778;2.308;2023-08-20T12:11:25;8;8;
62236;PMS5003;69163;48.778;2.308;2023-08-20T12:13:50;6;6;
62236;PMS5003;69163;48.778;2.308;2023-08-20T12:16:15;6;5;
62236;PMS5003;69163;48.778;2.308;2023-08-20T12:18:40;7;6;
62236;PMS5003;69163;48.778;2.308;2023-08-20T12:21:05;7;7;
62236;PMS5003;69163;48.778;2.308;2023-08-20T12:23:30;7;7;
62236;PMS5003;69163;48.778;2.308;2023-08-20T12:25:56;7;7;
62236;PMS5003;69163;48.778;2.308;2023-08-20T12:28:21;8;6;
62236;PMS5003;69163;48.778;2.308;2023-08-20T12:30:46;9;7;
62236;PMS5003;69163;48.778;2.308;2023-08-20T12:33:11;7;7;
62236;PMS5003;69163;48.778;2.308;2023-08-20T12:35:36;6;6;
62236;PMS5003;69163;48.778;2.308;2023-08-20T12:38:02;5;5;
62236;PMS5003;69163;48.778;2.308;2023-08-20T12:40:28;6;6;
62236;PMS5003;69163;48.778;2.308;2023-08-20T12:42:52;6;6;
62236;PMS5003;69163;48.778;2.308;2023-08-20T12:45:17;5;5;
62236;PMS5003;69163;48.778;2.308;2023-08-20T12:47:42;7;6;
62236;PMS5003;69163;48.778;2.308;2023-08-20T12:50:08;7;7;
62236;PMS5003;69163;48.778;2.308;2023-08-20T12:52:33;4;4;
62236;PMS5003;69163;48.778;2.308;2023-08-20T12:54:58;6;6;
62236;PMS5003;69163;48.778;2.308;2023-08-20T12:57:23;7;5;
62236;PMS5003;69163;48.778;2.308;2023-08-20T12:59:48;6;6;
62236;PMS5003;69163;48.778;2.308;2023-08-20T13:02:14;4;4;
62236;PMS5003;69163;48.778;2.308;2023-08-20T13:04:39;5;5;
62236;PMS5003;69163;48.778;2.308;2023-08-20T13:07:04;6;6;
62236;PMS5003;69163;48.778;2.308;2023-08-20T13:09:29;4;4;
62236;PMS5003;69163;48.778;2.308;2023-08-20T13:14:20;5;4;
62236;PMS5003;69163;48.778;2.308;2023-08-20T13:16:45;6;6;
62236;PMS5003;69163;48.778;2.308;2023-08-20T13:19:10;6;5;
62236;PMS5003;69163;48.778;2.308;2023-08-20T13:21:35;8;8;
62236;PMS5003;69163;48.778;2.308;2023-08-20T13:24:01;4;3;
62236;PMS5003;69163;48.778;2.308;2023-08-20T13:26:26;7;7;
62236;PMS5003;69163;48.778;2.308;2023-08-20T13:28:51;7;6;
62236;PMS5003;69163;48.778;2.308;2023-08-20T13:31:16;6;6;
62236;PMS5003;69163;48.778;2.308;2023-08-20T13:33:41;6;5;
62236;PMS5003;69163;48.778;2.308;2023-08-20T13:36:07;5;5;
62236;PMS5003;69163;48.778;2.308;2023-08-20T13:38:31;8;7;
62236;PMS5003;69163;48.778;2.308;2023-08-20T13:40:57;6;6;
62236;PMS5003;69163;48.778;2.308;2023-08-20T13:43:22;8;8;
62236;PMS5003;69163;48.778;2.308;2023-08-20T13:45:47;7;7;
62236;PMS5003;69163;48.778;2.308;2023-08-20T13:48:12;7;7;
62236;PMS5003;69163;48.778;2.308;2023-08-20T13:50:38;8;7;
62236;PMS5003;69163;48.778;2.308;2023-08-20T13:53:03;4;4;
62236;PMS5003;69163;48.778;2.308;2023-08-20T13:55:28;6;6;
62236;PMS5003;69163;48.778;2.308;2023-08-20T13:57:54;7;6;
62236;PMS5003;69163;48.778;2.308;2023-08-20T14:00:19;7;7;
62236;PMS5003;69163;48.778;2.308;2023-08-20T14:02:44;7;6;
62236;PMS5003;69163;48.778;2.308;2023-08-20T14:05:09;7;7;
62236;PMS5003;69163;48.778;2.308;2023-08-20T14:07:34;9;9;
62236;PMS5003;69163;48.778;2.308;2023-08-20T14:10:00;7;7;
62236;PMS5003;69163;48.778;2.308;2023-08-20T14:12:25;5;5;
62236;PMS5003;69163;48.778;2.308;2023-08-20T14:14:50;6;6;
62236;PMS5003;69163;48.778;2.308;2023-08-20T14:17:15;7;7;
62236;PMS5003;69163;48.778;2.308;2023-08-20T14:19:40;8;7;
62236;PMS5003;69163;48.778;2.308;2023-08-20T14:22:06;9;7;
62236;PMS5003;69163;48.778;2.308;2023-08-20T14:24:31;8;8;
62236;PMS5003;69163;48.778;2.308;2023-08-20T14:26:56;5;5;
62236;PMS5003;69163;48.778;2.308;2023-08-20T14:29:21;7;6;
62236;PMS5003;69163;48.778;2.308;2023-08-20T14:31:46;12;9;
62236;PMS5003;69163;48.778;2.308;2023-08-20T14:34:12;10;8;
62236;PMS5003;69163;48.778;2.308;2023-08-20T14:36:37;5;5;
62236;PMS5003;69163;48.778;2.308;2023-08-20T14:39:02;3;3;
62236;PMS5003;69163;48.778;2.308;2023-08-20T14:41:27;5;5;
62236;PMS5003;69163;48.778;2.308;2023-08-20T14:43:52;4;4;
62236;PMS5003;69163;48.778;2.308;2023-08-20T14:46:17;6;6;
62236;PMS5003;69163;48.778;2.308;2023-08-20T14:48:43;5;5;
62236;PMS5003;69163;48.778;2.308;2023-08-20T14:51:08;4;4;
62236;PMS5003;69163;48.778;2.308;2023-08-20T14:53:33;5;3;
62236;PMS5003;69163;48.778;2.308;2023-08-20T14:55:58;3;3;
62236;PMS5003;69163;48.778;2.308;2023-08-20T14:58:23;4;4;
62236;PMS5003;69163;48.778;2.308;2023-08-20T15:00:49;7;7;
62236;PMS5003;69163;48.778;2.308;2023-08-20T15:03:14;3;3;
62236;PMS5003;69163;48.778;2.308;2023-08-20T15:05:40;4;4;
62236;PMS5003;69163;48.778;2.308;2023-08-20T15:08:05;5;3;
62236;PMS5003;69163;48.778;2.308;2023-08-20T15:10:30;4;3;
62236;PMS5003;69163;48.778;2.308;2023-08-20T15:12:55;6;6;
62236;PMS5003;69163;48.778;2.308;2023-08-20T15:15:21;5;4;
62236;PMS5003;69163;48.778;2.308;2023-08-20T15:17:46;10;10;
62236;PMS5003;69163;48.778;2.308;2023-08-20T15:20:11;6;6;
62236;PMS5003;69163;48.778;2.308;2023-08-20T15:22:36;6;5;
62236;PMS5003;69163;48.778;2.308;2023-08-20T15:25:01;5;5;
62236;PMS5003;69163;48.778;2.308;2023-08-20T15:27:26;6;3;
62236;PMS5003;69163;48.778;2.308;2023-08-20T15:29:52;3;3;
62236;PMS5003;69163;48.778;2.308;2023-08-20T15:32:17;1;1;
62236;PMS5003;69163;48.778;2.308;2023-08-20T15:34:42;5;4;
62236;PMS5003;69163;48.778;2.308;2023-08-20T15:37:07;2;2;
62236;PMS5003;69163;48.778;2.308;2023-08-20T15:39:32;2;2;
62236;PMS5003;69163;48.778;2.308;2023-08-20T15:41:57;3;3;
62236;PMS5003;69163;48.778;2.308;2023-08-20T15:44:23;1;1;
62236;PMS5003;69163;48.778;2.308;2023-08-20T15:46:48;4;4;
62236;PMS5003;69163;48.778;2.308;2023-08-20T15:49:13;3;3;
62236;PMS5003;69163;48.778;2.308;2023-08-20T15:51:38;2;2;
62236;PMS5003;69163;48.778;2.308;2023-08-20T15:54:03;1;1;
62236;PMS5003;69163;48.778;2.308;2023-08-20T15:56:29;5;4;
62236;PMS5003;69163;48.778;2.308;2023-08-20T15:58:54;2;2;
62236;PMS5003;69163;48.778;2.308;2023-08-20T16:01:19;3;3;
62236;PMS5003;69163;48.778;2.308;2023-08-20T16:03:44;2;2;
62236;PMS5003;69163;48.778;2.308;2023-08-20T16:06:09;3;3;
62236;PMS5003;69163;48.778;2.308;2023-08-20T16:08:35;1;1;
62236;PMS5003;69163;48.778;2.308;2023-08-20T16:11:00;2;2;
62236;PMS5003;69163;48.778;2.308;2023-08-20T16:13:25;1;1;
62236;PMS5003;69163;48.778;2.308;2023-08-20T16:15:50;1;1;
62236;PMS5003;69163;48.778;2.308;2023-08-20T16:18:16;0;0;
62236;PMS5003;69163;48.778;2.308;2023-08-20T16:20:41;1;1;
62236;PMS5003;69163;48.778;2.308;2023-08-20T16:23:06;2;2;
62236;PMS5003;69163;48.778;2.308;2023-08-20T16:25:31;2;2;
62236;PMS5003;69163;48.778;2.308;2023-08-20T16:27:56;2;2;
62236;PMS5003;69163;48.778;2.308;2023-08-20T16:30:21;0;0;
62236;PMS5003;69163;48.778;2.308;2023-08-20T16:32:46;1;1;
62236;PMS5003;69163;48.778;2.308;2023-08-20T16:35:11;1;1;
62236;PMS5003;69163;48.778;2.308;2023-08-20T16:37:37;3;3;
62236;PMS5003;69163;48.778;2.308;2023-08-20T16:40:02;3;3;
62236;PMS5003;69163;48.778;2.308;2023-08-20T16:42:27;2;2;
62236;PMS5003;69163;48.778;2.308;2023-08-20T16:44:52;3;3;